createdAt,value
2018-10-05T00:01:35.432Z,2.37
2018-10-05T00:04:04.561Z,2.27
2018-10-05T00:06:32.908Z,2.47
2018-10-05T00:09:01.675Z,2.47
2018-10-05T00:11:30.473Z,2.40
2018-10-05T00:13:58.797Z,1.80
2018-10-05T00:16:27.497Z,1.93
2018-10-05T00:18:56.349Z,1.87
2018-10-05T00:21:24.668Z,1.87
2018-10-05T00:23:52.988Z,2.30
2018-10-05T00:26:21.375Z,1.83
2018-10-05T00:28:49.686Z,2.10
2018-10-05T00:31:18.367Z,2.10
2018-10-05T00:33:46.768Z,2.80
2018-10-05T00:36:15.152Z,2.57
2018-10-05T00:38:43.559Z,2.07
2018-10-05T00:41:12.242Z,2.00
2018-10-05T00:43:40.595Z,2.00
2018-10-05T00:46:09.033Z,2.10
2018-10-05T00:48:37.370Z,1.90
2018-10-05T00:51:05.712Z,2.10
2018-10-05T00:53:34.124Z,2.30
2018-10-05T00:56:02.624Z,1.90
2018-10-05T00:58:30.960Z,2.57
2018-10-05T01:00:59.293Z,1.60
2018-10-05T01:03:28.270Z,2.30
2018-10-05T01:05:56.585Z,2.00
2018-10-05T01:08:24.942Z,1.90
2018-10-05T01:10:54.219Z,1.60
2018-10-05T01:13:22.585Z,1.90
2018-10-05T01:15:51.184Z,2.17
2018-10-05T01:18:19.891Z,2.00
2018-10-05T01:20:49.027Z,1.73
2018-10-05T01:23:17.495Z,2.00
2018-10-05T01:25:45.893Z,1.90
2018-10-05T01:28:14.423Z,2.17
2018-10-05T01:30:43.089Z,2.43
2018-10-05T01:33:11.817Z,1.97
2018-10-05T01:35:40.211Z,2.20
2018-10-05T01:38:08.981Z,2.20
2018-10-05T01:40:37.914Z,2.00
2018-10-05T01:43:06.651Z,2.47
2018-10-05T01:45:34.951Z,2.93
2018-10-05T01:48:03.469Z,2.00
2018-10-05T01:50:32.312Z,2.40
2018-10-05T01:53:00.658Z,2.37
2018-10-05T01:55:29.007Z,2.13
2018-10-05T01:57:57.328Z,2.10
2018-10-05T02:00:25.984Z,2.00
2018-10-05T02:02:54.283Z,1.90
2018-10-05T02:05:22.827Z,2.30
2018-10-05T02:07:51.145Z,1.93
2018-10-05T02:10:19.516Z,2.10
2018-10-05T02:12:48.249Z,2.17
2018-10-05T02:15:16.575Z,2.17
2018-10-05T02:17:45.215Z,2.30
2018-10-05T02:20:13.531Z,2.00
2018-10-05T02:22:41.858Z,3.23
2018-10-05T02:25:10.793Z,2.37
2018-10-05T02:27:39.188Z,2.50
2018-10-05T02:30:07.606Z,1.90
2018-10-05T02:32:36.609Z,2.10
2018-10-05T02:35:05.160Z,2.43
2018-10-05T02:37:33.597Z,2.10
2018-10-05T02:40:01.942Z,2.60
2018-10-05T02:42:30.353Z,2.50
2018-10-05T02:44:58.839Z,2.20
2018-10-05T02:47:27.528Z,2.40
2018-10-05T02:49:56.002Z,2.30
2018-10-05T02:52:24.478Z,2.50
2018-10-05T02:54:52.961Z,2.40
2018-10-05T02:57:21.445Z,2.40
2018-10-05T02:59:49.754Z,2.37
2018-10-05T03:02:29.844Z,2.50
2018-10-05T03:04:58.375Z,2.37
2018-10-05T03:07:27.823Z,2.57
2018-10-05T03:09:56.905Z,2.10
2018-10-05T03:12:25.268Z,2.33
2018-10-05T03:14:54.115Z,2.53
2018-10-05T03:17:22.767Z,2.47
2018-10-05T03:19:51.520Z,2.40
2018-10-05T03:22:20.001Z,2.47
2018-10-05T03:24:48.704Z,2.30
2018-10-05T03:27:17.084Z,2.33
2018-10-05T03:29:45.581Z,2.50
2018-10-05T03:32:14.553Z,3.10
2018-10-05T03:34:42.979Z,2.10
2018-10-05T03:37:11.317Z,2.80
2018-10-05T03:39:40.247Z,2.53
2018-10-05T03:42:08.739Z,2.67
2018-10-05T03:44:37.037Z,3.10
2018-10-05T03:47:05.759Z,3.03
2018-10-05T03:49:34.143Z,2.70
2018-10-05T03:52:02.730Z,2.90
2018-10-05T03:54:31.494Z,2.73
2018-10-05T03:56:59.814Z,2.50
2018-10-05T03:59:28.264Z,2.80
2018-10-05T04:01:56.919Z,2.77
2018-10-05T04:04:25.592Z,2.57
2018-10-05T04:06:54.260Z,2.67
2018-10-05T04:09:22.970Z,3.50
2018-10-05T04:11:51.435Z,2.97
2018-10-05T04:14:19.744Z,2.67
2018-10-05T04:16:48.632Z,2.47
2018-10-05T04:19:17.025Z,2.47
2018-10-05T04:21:45.434Z,2.30
2018-10-05T04:24:13.742Z,2.40
2018-10-05T04:26:42.043Z,2.50
2018-10-05T04:29:10.584Z,3.03
2018-10-05T04:31:39.129Z,2.60
2018-10-05T04:34:07.728Z,2.60
2018-10-05T04:36:36.057Z,2.40
2018-10-05T04:39:05.544Z,2.40
2018-10-05T04:41:34.164Z,3.00
2018-10-05T04:44:02.500Z,2.23
2018-10-05T04:46:31.207Z,2.70
2018-10-05T04:48:59.780Z,2.60
2018-10-05T04:51:28.600Z,2.63
2018-10-05T04:53:57.306Z,2.40
2018-10-05T04:56:25.698Z,2.20
2018-10-05T04:58:54.017Z,2.50
2018-10-05T05:01:22.731Z,2.33
2018-10-05T05:03:51.198Z,2.30
2018-10-05T05:06:19.547Z,2.37
2018-10-05T05:08:48.345Z,2.50
2018-10-05T05:11:17.545Z,2.53
2018-10-05T05:13:45.912Z,2.37
2018-10-05T05:16:14.908Z,2.87
2018-10-05T05:18:43.905Z,2.40
2018-10-05T05:21:12.471Z,2.60
2018-10-05T05:23:41.070Z,2.50
2018-10-05T05:26:09.713Z,2.40
2018-10-05T05:28:38.404Z,2.87
2018-10-05T05:31:07.477Z,2.70
2018-10-05T05:33:35.982Z,2.30
2018-10-05T05:36:04.321Z,2.50
2018-10-05T05:38:33.152Z,2.77
2018-10-05T05:41:01.709Z,2.50
2018-10-05T05:43:30.915Z,2.57
2018-10-05T05:45:59.561Z,2.83
2018-10-05T05:48:28.013Z,3.00
2018-10-05T05:50:56.396Z,2.63
2018-10-05T05:53:25.535Z,2.60
2018-10-05T05:55:54.092Z,2.30
2018-10-05T05:58:22.467Z,2.30
2018-10-05T06:00:51.579Z,2.33
2018-10-05T06:03:20.071Z,2.73
2018-10-05T06:05:48.396Z,2.67
2018-10-05T06:08:17.520Z,2.53
2018-10-05T06:10:45.914Z,2.60
2018-10-05T06:13:14.244Z,2.10
2018-10-05T06:15:43.020Z,2.20
2018-10-05T06:18:11.369Z,2.73
2018-10-05T06:20:40.394Z,2.40
2018-10-05T06:23:08.899Z,2.47
2018-10-05T06:25:37.422Z,2.40
2018-10-05T06:28:06.044Z,2.23
2018-10-05T06:30:34.837Z,2.27
2018-10-05T06:33:03.614Z,2.23
2018-10-05T06:35:31.893Z,2.30
2018-10-05T06:38:00.559Z,2.10
2018-10-05T06:40:29.344Z,2.50
2018-10-05T06:42:57.678Z,2.20
2018-10-05T06:45:26.448Z,1.93
2018-10-05T06:47:54.839Z,1.90
2018-10-05T06:50:23.265Z,2.03
2018-10-05T06:52:52.635Z,2.20
2018-10-05T06:55:20.963Z,1.60
2018-10-05T06:57:49.250Z,1.97
2018-10-05T07:00:18.587Z,1.60
2018-10-05T07:02:46.931Z,2.20
2018-10-05T07:05:15.567Z,2.00
2018-10-05T07:07:44.677Z,1.90
2018-10-05T07:10:13.447Z,1.90
2018-10-05T07:12:42.016Z,1.80
2018-10-05T07:15:10.538Z,2.10
2018-10-05T07:17:38.874Z,2.17
2018-10-05T07:20:07.634Z,1.70
2018-10-05T07:22:36.621Z,1.80
2018-10-05T07:25:05.081Z,1.67
2018-10-05T07:27:33.706Z,1.80
2018-10-05T07:30:02.506Z,1.80
2018-10-05T07:32:30.812Z,2.33
2018-10-05T07:34:59.160Z,1.90
2018-10-05T07:37:27.913Z,2.03
2018-10-05T07:39:56.318Z,1.80
2018-10-05T07:42:24.698Z,1.80
2018-10-05T07:44:53.073Z,1.70
2018-10-05T07:47:21.444Z,2.10
2018-10-05T07:49:49.829Z,1.97
2018-10-05T07:52:18.764Z,2.00
2018-10-05T07:54:47.040Z,1.70
2018-10-05T07:57:15.373Z,2.40
2018-10-05T07:59:44.470Z,2.03
2018-10-05T08:02:12.776Z,2.33
2018-10-05T08:04:41.216Z,2.07
2018-10-05T08:07:09.907Z,2.00
2018-10-05T08:09:38.345Z,1.93
2018-10-05T08:12:06.762Z,2.10
2018-10-05T08:14:35.323Z,1.87
2018-10-05T08:17:03.695Z,1.63
2018-10-05T08:19:32.015Z,2.20
2018-10-05T08:22:00.415Z,1.83
2018-10-05T08:24:28.968Z,1.80
2018-10-05T08:26:57.535Z,2.33
2018-10-05T08:29:25.869Z,3.23
2018-10-05T08:31:54.244Z,2.70
2018-10-05T08:34:22.988Z,2.40
2018-10-05T08:36:51.723Z,2.77
2018-10-05T08:39:20.124Z,2.70
2018-10-05T08:41:48.496Z,2.70
2018-10-05T08:44:17.416Z,2.53
2018-10-05T08:46:45.826Z,2.67
2018-10-05T08:49:14.198Z,3.33
2018-10-05T08:51:42.996Z,3.80
2018-10-05T08:54:11.276Z,3.23
2018-10-05T08:56:39.623Z,4.13
2018-10-05T08:59:08.349Z,4.33
2018-10-05T09:01:36.647Z,3.40
2018-10-05T09:04:05.122Z,3.07
2018-10-05T09:06:33.964Z,3.77
2018-10-05T09:09:02.310Z,3.27
2018-10-05T09:11:31.210Z,3.00
2018-10-05T09:13:59.788Z,3.87
2018-10-05T09:16:28.071Z,3.27
2018-10-05T09:18:56.514Z,2.37
2018-10-05T09:21:25.103Z,2.57
2018-10-05T09:23:53.868Z,2.10
2018-10-05T09:26:22.595Z,2.40
2018-10-05T09:28:51.225Z,2.07
2018-10-05T09:31:19.575Z,2.37
2018-10-05T09:33:47.904Z,2.10
2018-10-05T09:36:16.258Z,1.90
2018-10-05T09:38:44.833Z,2.13
2018-10-05T09:41:13.327Z,1.67
2018-10-05T09:43:41.944Z,2.20
2018-10-05T09:46:10.335Z,1.97
2018-10-05T09:48:38.899Z,1.83
2018-10-05T09:51:07.641Z,2.00
2018-10-05T09:53:36.008Z,1.80
2018-10-05T09:56:04.936Z,1.87
2018-10-05T09:58:33.768Z,1.97
2018-10-05T10:01:07.862Z,2.13
2018-10-05T10:03:37.133Z,2.07
2018-10-05T10:06:06.317Z,2.20
2018-10-05T10:08:35.071Z,2.10
2018-10-05T10:11:03.875Z,1.60
2018-10-05T10:13:32.627Z,1.93
2018-10-05T10:16:00.955Z,1.60
2018-10-05T10:18:30.110Z,1.60
2018-10-05T10:20:58.567Z,2.80
2018-10-05T10:23:26.986Z,1.90
2018-10-05T10:25:56.052Z,1.80
2018-10-05T10:28:25.246Z,1.60
2018-10-05T10:30:53.611Z,1.80
2018-10-05T10:33:22.357Z,2.07
2018-10-05T10:35:51.008Z,1.83
2018-10-05T10:38:19.369Z,1.40
2018-10-05T10:40:48.114Z,1.67
2018-10-05T10:43:17.103Z,1.60
2018-10-05T10:45:45.432Z,2.00
2018-10-05T10:48:14.085Z,1.50
2018-10-05T10:50:42.485Z,1.60
2018-10-05T10:53:11.125Z,1.30
2018-10-05T10:55:39.909Z,1.30
2018-10-05T10:58:08.856Z,1.47
2018-10-05T11:00:37.318Z,1.80
2018-10-05T11:03:06.114Z,1.93
2018-10-05T11:05:34.391Z,1.50
2018-10-05T11:08:03.076Z,1.90
2018-10-05T11:10:32.077Z,1.83
2018-10-05T11:13:00.625Z,1.57
2018-10-05T11:15:28.938Z,2.00
2018-10-05T11:17:57.819Z,1.87
2018-10-05T11:20:26.203Z,1.70
2018-10-05T11:22:54.575Z,1.60
2018-10-05T11:25:23.762Z,1.33
2018-10-05T11:27:52.252Z,1.33
2018-10-05T11:30:21.093Z,1.30
2018-10-05T11:32:56.249Z,1.40
2018-10-05T11:35:24.607Z,1.43
2018-10-05T11:37:53.443Z,1.27
2018-10-05T11:40:22.632Z,1.37
2018-10-05T11:42:50.984Z,1.13
2018-10-05T11:45:19.721Z,1.40
2018-10-05T11:47:48.241Z,1.33
2018-10-05T11:50:17.070Z,1.30
2018-10-05T11:52:45.513Z,1.60
2018-10-05T11:55:14.330Z,2.20
2018-10-05T11:57:43.480Z,1.53
2018-10-05T12:00:11.891Z,1.23
2018-10-05T12:02:41.159Z,1.73
2018-10-05T12:05:09.570Z,1.50
2018-10-05T12:07:37.939Z,1.30
2018-10-05T12:10:06.494Z,1.20
2018-10-05T12:12:34.847Z,1.40
2018-10-05T12:15:03.239Z,1.17
2018-10-05T12:17:32.080Z,1.20
2018-10-05T12:20:00.410Z,1.57
2018-10-05T12:22:28.782Z,1.50
2018-10-05T12:24:57.736Z,1.33
2018-10-05T12:27:26.319Z,1.30
2018-10-05T12:29:55.206Z,1.33
2018-10-05T12:32:24.353Z,1.43
2018-10-05T12:34:53.019Z,1.37
2018-10-05T12:37:21.398Z,1.20
2018-10-05T12:39:50.048Z,1.27
2018-10-05T12:42:18.424Z,1.50
2018-10-05T12:44:47.319Z,1.33
2018-10-05T12:47:16.083Z,0.90
2018-10-05T12:49:44.415Z,1.50
2018-10-05T12:52:12.890Z,1.30
2018-10-05T12:54:42.051Z,0.87
2018-10-05T12:57:10.368Z,1.00
2018-10-05T12:59:38.982Z,1.10
2018-10-05T13:02:08.366Z,1.03
2018-10-05T13:04:36.749Z,0.83
2018-10-05T13:07:05.132Z,1.37
2018-10-05T13:09:33.607Z,0.97
2018-10-05T13:12:02.130Z,1.10
2018-10-05T13:14:30.498Z,1.00
2018-10-05T13:16:59.061Z,0.97
2018-10-05T13:19:27.437Z,1.20
2018-10-05T13:21:55.771Z,1.47
2018-10-05T13:24:24.344Z,1.10
2018-10-05T13:26:52.673Z,1.20
2018-10-05T13:29:21.018Z,1.13
2018-10-05T13:31:50.040Z,1.20
2018-10-05T13:34:18.709Z,1.10
2018-10-05T13:36:47.054Z,0.90
2018-10-05T13:39:15.720Z,0.90
2018-10-05T13:41:44.101Z,1.10
2018-10-05T13:44:12.674Z,1.40
2018-10-05T13:46:41.162Z,1.67
2018-10-05T13:49:09.543Z,1.20
2018-10-05T13:51:38.309Z,1.27
2018-10-05T13:54:07.042Z,1.10
2018-10-05T13:56:35.793Z,1.20
2018-10-05T13:59:05.031Z,1.60
2018-10-05T14:01:33.780Z,1.10
2018-10-05T14:04:02.124Z,1.23
2018-10-05T14:06:30.518Z,1.10
2018-10-05T14:08:59.014Z,1.07
2018-10-05T14:11:27.326Z,0.80
2018-10-05T14:13:55.861Z,1.00
2018-10-05T14:16:24.494Z,1.03
2018-10-05T14:18:52.967Z,1.30
2018-10-05T14:21:21.716Z,1.20
2018-10-05T14:23:50.325Z,1.27
2018-10-05T14:26:18.675Z,1.37
2018-10-05T14:28:47.029Z,1.30
2018-10-05T14:31:15.779Z,2.33
2018-10-05T14:33:44.398Z,1.10
2018-10-05T14:36:13.210Z,1.17
2018-10-05T14:38:41.517Z,1.03
2018-10-05T14:41:09.845Z,1.23
2018-10-05T14:43:38.181Z,1.00
2018-10-05T14:46:07.212Z,1.13
2018-10-05T14:48:35.517Z,1.13
2018-10-05T14:51:03.821Z,0.97
2018-10-05T14:53:32.349Z,1.10
2018-10-05T14:56:00.798Z,1.23
2018-10-05T14:58:29.129Z,1.37
2018-10-05T15:00:57.527Z,1.07
2018-10-05T15:03:25.889Z,1.30
2018-10-05T15:05:54.228Z,1.47
2018-10-05T15:08:22.988Z,1.80
2018-10-05T15:10:51.439Z,1.10
2018-10-05T15:13:19.833Z,1.30
2018-10-05T15:15:48.312Z,1.20
2018-10-05T15:18:16.859Z,1.33
2018-10-05T15:20:45.437Z,1.53
2018-10-05T15:23:14.192Z,0.90
2018-10-05T15:25:42.706Z,1.20
2018-10-05T15:28:11.770Z,1.30
2018-10-05T15:30:40.089Z,1.00
2018-10-05T15:33:08.446Z,1.30
2018-10-05T15:35:37.524Z,1.20
2018-10-05T15:38:06.440Z,1.90
2018-10-05T15:40:34.726Z,1.20
2018-10-05T15:43:03.228Z,1.30
2018-10-05T15:45:31.764Z,1.10
2018-10-05T15:48:00.372Z,1.43
2018-10-05T15:50:28.730Z,1.33
2018-10-05T15:52:57.676Z,1.30
2018-10-05T15:55:26.000Z,1.13
2018-10-05T15:57:54.310Z,0.90
2018-10-05T16:00:23.057Z,1.07
2018-10-05T16:02:51.420Z,1.30
2018-10-05T16:05:19.810Z,1.10
2018-10-05T16:07:48.575Z,1.20
2018-10-05T16:10:17.034Z,1.17
2018-10-05T16:12:45.357Z,1.43
2018-10-05T16:15:13.742Z,1.00
2018-10-05T16:17:42.064Z,2.30
2018-10-05T16:20:10.466Z,1.30
2018-10-05T16:22:38.823Z,1.93
2018-10-05T16:25:07.147Z,1.10
2018-10-05T16:27:35.470Z,1.30
2018-10-05T16:30:04.632Z,1.10
2018-10-05T16:32:32.990Z,1.40
2018-10-05T16:35:01.336Z,1.20
2018-10-05T16:37:30.502Z,1.30
2018-10-05T16:39:58.679Z,1.20
2018-10-05T16:42:27.068Z,1.47
2018-10-05T16:44:55.421Z,2.03
2018-10-05T16:47:24.135Z,1.50
2018-10-05T16:49:52.506Z,3.57
2018-10-05T16:52:21.307Z,4.10
2018-10-05T16:54:49.875Z,2.17
2018-10-05T16:57:18.221Z,1.67
2018-10-05T16:59:47.045Z,1.77
2018-10-05T17:02:15.386Z,1.77
2018-10-05T17:04:43.712Z,1.53
2018-10-05T17:07:12.827Z,1.20
2018-10-05T17:09:41.127Z,1.80
2018-10-05T17:12:09.498Z,1.33
2018-10-05T17:14:38.032Z,1.37
2018-10-05T17:17:06.550Z,1.50
2018-10-05T17:19:34.840Z,1.40
2018-10-05T17:22:03.668Z,1.80
2018-10-05T17:24:31.997Z,1.63
2018-10-05T17:27:00.678Z,1.43
2018-10-05T17:29:29.358Z,1.47
2018-10-05T17:31:57.651Z,2.00
2018-10-05T17:34:26.004Z,2.00
2018-10-05T17:36:54.842Z,2.30
2018-10-05T17:39:23.148Z,4.17
2018-10-05T17:41:51.515Z,6.20
2018-10-05T17:44:20.284Z,2.90
2018-10-05T17:46:48.913Z,2.10
2018-10-05T17:49:17.520Z,2.37
2018-10-05T17:51:46.373Z,1.50
2018-10-05T17:54:14.737Z,1.20
2018-10-05T17:56:43.321Z,1.37
2018-10-05T17:59:12.087Z,1.80
2018-10-05T18:01:40.787Z,2.70
2018-10-05T18:04:09.075Z,1.80
2018-10-05T18:06:37.864Z,1.60
2018-10-05T18:09:07.434Z,1.73
2018-10-05T18:11:36.139Z,1.53
2018-10-05T18:14:05.151Z,1.37
2018-10-05T18:16:33.744Z,1.30
2018-10-05T18:19:02.244Z,1.67
2018-10-05T18:21:31.236Z,1.60
2018-10-05T18:23:59.607Z,1.37
2018-10-05T18:26:28.149Z,1.70
2018-10-05T18:28:56.782Z,2.20
2018-10-05T18:31:25.090Z,2.60
2018-10-05T18:33:53.404Z,2.43
2018-10-05T18:36:22.208Z,3.60
2018-10-05T18:38:50.510Z,4.00
2018-10-05T18:41:18.875Z,2.40
2018-10-05T18:43:47.672Z,3.97
2018-10-05T18:46:16.056Z,4.53
2018-10-05T18:48:44.474Z,3.30
2018-10-05T18:51:13.318Z,1.93
2018-10-05T18:53:41.851Z,1.60
2018-10-05T18:56:21.555Z,2.30
2018-10-05T18:58:50.271Z,2.07
2018-10-05T19:01:19.005Z,1.87
2018-10-05T19:03:47.542Z,2.97
2018-10-05T19:06:15.918Z,2.00
2018-10-05T19:08:44.790Z,2.97
2018-10-05T19:11:13.485Z,4.83
2018-10-05T19:13:41.845Z,4.53
2018-10-05T19:16:10.498Z,4.40
2018-10-05T19:18:39.083Z,4.40
2018-10-05T19:21:07.393Z,2.10
2018-10-05T19:23:35.933Z,1.70
2018-10-05T19:26:04.789Z,1.93
2018-10-05T19:28:33.605Z,1.90
2018-10-05T19:31:01.919Z,1.97
2018-10-05T19:33:30.562Z,2.03
2018-10-05T19:35:59.010Z,1.37
2018-10-05T19:38:27.473Z,1.73
2018-10-05T19:40:56.167Z,1.63
2018-10-05T19:43:24.592Z,2.03
2018-10-05T19:45:52.914Z,1.90
2018-10-05T19:48:21.426Z,1.87
2018-10-05T19:50:49.728Z,1.80
2018-10-05T19:53:18.378Z,1.70
2018-10-05T19:55:46.869Z,2.23
2018-10-05T19:58:15.238Z,1.37
2018-10-05T20:00:44.159Z,1.50
2018-10-05T20:03:12.915Z,1.93
2018-10-05T20:05:41.551Z,1.80
2018-10-05T20:08:10.128Z,1.50
2018-10-05T20:10:38.930Z,1.43
2018-10-05T20:13:07.551Z,2.40
2018-10-05T20:15:35.879Z,1.90
2018-10-05T20:18:04.556Z,2.67
2018-10-05T20:20:32.823Z,2.83
2018-10-05T20:23:01.312Z,2.10
2018-10-05T20:25:30.290Z,2.17
2018-10-05T20:27:58.734Z,1.50
2018-10-05T20:30:27.050Z,1.70
2018-10-05T20:32:56.044Z,1.93
2018-10-05T20:35:24.390Z,2.70
2018-10-05T20:37:53.152Z,2.23
2018-10-05T20:40:21.832Z,1.60
2018-10-05T20:42:50.160Z,1.90
2018-10-05T20:45:18.640Z,2.70
2018-10-05T20:47:47.596Z,2.07
2018-10-05T20:50:16.057Z,1.90
2018-10-05T20:52:44.693Z,2.10
2018-10-05T20:55:13.630Z,2.00
2018-10-05T20:57:41.955Z,1.97
2018-10-05T21:00:10.631Z,2.37
2018-10-05T21:02:39.738Z,1.70
2018-10-05T21:05:08.304Z,2.23
2018-10-05T21:07:36.811Z,2.10
2018-10-05T21:10:05.768Z,3.33
2018-10-05T21:12:34.172Z,2.30
2018-10-05T21:15:02.831Z,2.10
2018-10-05T21:17:31.319Z,1.80
2018-10-05T21:19:59.645Z,2.97
2018-10-05T21:22:28.031Z,3.03
2018-10-05T21:24:56.753Z,1.50
2018-10-05T21:27:25.361Z,1.67
2018-10-05T21:29:53.814Z,1.87
2018-10-05T21:32:22.480Z,2.00
2018-10-05T21:34:51.301Z,1.87
2018-10-05T21:37:19.793Z,1.80
2018-10-05T21:39:49.025Z,2.03
2018-10-05T21:42:17.664Z,1.73
2018-10-05T21:44:46.058Z,1.90
2018-10-05T21:47:14.802Z,1.80
2018-10-05T21:49:43.113Z,1.80
2018-10-05T21:52:11.761Z,1.63
2018-10-05T21:54:40.409Z,1.60
2018-10-05T21:57:08.771Z,1.93
2018-10-05T21:59:37.544Z,2.33
2018-10-05T22:02:06.281Z,2.10
2018-10-05T22:04:35.016Z,1.67
2018-10-05T22:07:03.580Z,2.07
2018-10-05T22:09:32.165Z,2.80
2018-10-05T22:12:00.947Z,3.23
2018-10-05T22:14:29.295Z,2.27
2018-10-05T22:16:57.899Z,1.73
2018-10-05T22:19:26.485Z,2.17
2018-10-05T22:21:54.805Z,2.10
2018-10-05T22:24:23.948Z,2.10
2018-10-05T22:26:52.463Z,1.67
2018-10-05T22:29:20.827Z,1.87
2018-10-05T22:31:49.601Z,2.00
2018-10-05T22:34:17.943Z,1.93
2018-10-05T22:36:46.320Z,1.50
2018-10-05T22:39:15.006Z,2.10
2018-10-05T22:41:43.485Z,2.00
2018-10-05T22:44:11.813Z,1.77
2018-10-05T22:46:41.201Z,2.17
2018-10-05T22:49:10.001Z,2.17
2018-10-05T22:51:38.323Z,2.50
2018-10-05T22:54:07.110Z,2.07
2018-10-05T22:56:35.440Z,2.20
2018-10-05T22:59:03.747Z,2.13
2018-10-05T23:01:32.628Z,2.23
2018-10-05T23:04:00.939Z,1.73
2018-10-05T23:06:29.837Z,2.47
2018-10-05T23:08:58.668Z,2.10
2018-10-05T23:11:27.006Z,2.20
2018-10-05T23:13:55.325Z,2.63
2018-10-05T23:16:24.305Z,2.03
2018-10-05T23:18:52.627Z,1.80
2018-10-05T23:21:20.934Z,2.53
2018-10-05T23:23:49.614Z,2.87
2018-10-05T23:26:18.047Z,1.73
2018-10-05T23:28:46.813Z,1.77
2018-10-05T23:31:15.603Z,1.93
2018-10-05T23:33:43.928Z,2.43
2018-10-05T23:36:12.283Z,2.43
2018-10-05T23:38:40.837Z,1.67
2018-10-05T23:41:09.185Z,1.93
2018-10-05T23:43:37.513Z,2.13
2018-10-05T23:46:06.291Z,2.20
2018-10-05T23:48:34.882Z,2.40
2018-10-05T23:51:03.343Z,2.00
2018-10-05T23:53:32.413Z,2.17
2018-10-05T23:56:00.826Z,2.10
2018-10-05T23:58:29.142Z,2.37
